Neuburg — 5BQJ2 — position and weather

sailwx.info

Track history (hours):
 
Tides and Currents Weather Stations Pressure Air Temp Water Temp Dewpoint Dewpoint Depression Visibility Wind Speed Wind Dir Waves Ship Positions

Neuburg

Last reported at 2017-Feb-20 06:30 UTC. Time now 2017-Feb-21 07:58 UTC.
Position N 35°53' W 005°58'.

Length 142 m; draft 7.1 m.

Type: Ship (hazmat cat A). MMSI: 212740000.

Date/timePositionNaut miles runAvg speedWind from/ knotsBaromVisibWave heightAir tempDewpointWater temp
2017-Feb-20 06:30N 35°53' W 005°58'1516.2
2017-Feb-20 05:34N 35°57' W 005°39'1515.4
2017-Feb-20 04:34N 36°01' W 005°21'1616.5
2017-Feb-20 03:34N 36°07' W 005°02'20915.8
2017-Feb-19 14:19N 37°19' W 000°57'1317.1
2017-Feb-19 13:33N 37°27' W 000°45'1616.3
2017-Feb-19 12:33N 37°40' W 000°32'1616.2
2017-Feb-19 11:33N 37°56' W 000°27'137 4.3
2017-Feb-18 03:33N 39°49' E 001°10'1717.3
2017-Feb-18 02:33N 40°05' E 001°20'1717.1
2017-Feb-18 01:33N 40°20' E 001°31'1716.9
2017-Feb-18 00:33N 40°35' E 001°41'1616.5
2017-Feb-17 23:34N 40°49' E 001°51'1716.4
2017-Feb-17 22:33N 41°04' E 002°02'1616.2
2017-Feb-17 21:33N 41°19' E 002°10'3 1.2
2017-Feb-17 19:26N 41°21' E 002°10'0 0.0
2017-Feb-17 18:20N 41°21' E 002°10'0 0.0
2017-Feb-17 15:32N 41°21' E 002°10'0 0.0
2017-Feb-17 14:26N 41°21' E 002°10'0 0.0
2017-Feb-17 13:08N 41°21' E 002°10'4 0.6
2017-Feb-17 07:32N 41°18' E 002°11'7 6.6
2017-Feb-17 06:30N 41°20' E 002°20'22316.8
2017-Feb-16 17:15N 43°01' E 006°48'1216.5
2017-Feb-16 16:31N 43°09' E 007°00'1616.7
2017-Feb-16 15:34N 43°19' E 007°17'1817.9
2017-Feb-16 14:33N 43°30' E 007°36'1818.1
2017-Feb-16 13:33N 43°42' E 007°55'2518.0
2017-Feb-16 12:11N 43°58' E 008°22'1117.9
2017-Feb-16 11:33N 44°05' E 008°34'1817.9
2017-Feb-16 10:34N 44°17' E 008°53'8 7.7
2017-Feb-16 09:33N 44°24' E 008°53'0 0.0
2017-Feb-16 08:33N 44°24' E 008°53'0 0.0
2017-Feb-16 07:33N 44°24' E 008°53'0 0.0
2017-Feb-16 06:33N 44°24' E 008°53'0 0.0
2017-Feb-16 05:33N 44°24' E 008°53'0 0.0
2017-Feb-16 04:33N 44°24' E 008°53'0 0.0
2017-Feb-16 03:33N 44°24' E 008°53'0 0.0
2017-Feb-16 02:33N 44°24' E 008°53'0 0.0
2017-Feb-16 01:33N 44°24' E 008°53'2 1.8
2017-Feb-16 00:33N 44°24' E 008°55'8 7.5
2017-Feb-15 23:33N 44°17' E 008°53'1716.6
2017-Feb-15 22:33N 44°05' E 008°35'1716.6
2017-Feb-15 21:33N 43°54' E 008°18'1616.5
2017-Feb-15 20:33N 43°43' E 008°01'1716.7
2017-Feb-15 19:33N 43°33' E 007°43'1616.3
2017-Feb-15 18:33N 43°22' E 007°26'1616.1
2017-Feb-15 17:33N 43°13' E 007°08'22815.9
2017-Feb-15 03:17N 41°26' E 002°36'1215.3
2017-Feb-15 02:28N 41°20' E 002°22'9 1.1
2017-Feb-14 18:33N 41°21' E 002°10'9 8.7
2017-Feb-14 17:33N 41°13' E 002°09'1312.5
2017-Feb-14 16:33N 41°01' E 002°01'1312.9
2017-Feb-14 15:33N 40°50' E 001°54'1312.7
2017-Feb-14 14:33N 40°38' E 001°46'1313.0
2017-Feb-14 13:33N 40°27' E 001°38'1313.0
2017-Feb-14 12:33N 40°16' E 001°30'1312.7
2017-Feb-14 11:33N 40°04' E 001°22'1312.9
2017-Feb-14 10:33N 39°53' E 001°15'133 7.7
2017-Feb-13 17:23N 38°04' W 000°24'1916.4
2017-Feb-13 16:15N 37°46' W 000°27'1116.0
2017-Feb-13 15:33N 37°35' W 000°29'1615.9
2017-Feb-13 14:33N 37°24' W 000°44'21516.3
2017-Feb-13 01:20N 36°03' W 004°52'1417.5
2017-Feb-13 00:33N 36°00' W 005°08'1717.2
2017-Feb-12 23:34N 35°57' W 005°29'63715.7
2017-Feb-11 07:05N 29°10' W 015°12'815.9
2017-Feb-11 06:34N 29°05' W 015°19'1616.0
2017-Feb-11 05:33N 28°54' W 015°33'1615.9
2017-Feb-11 04:33N 28°45' W 015°47'1616.1
2017-Feb-11 03:33N 28°34' W 016°01'1211.8
2017-Feb-11 02:32N 28°29' W 016°13'0 0.0
2017-Feb-11 01:29N 28°29' W 016°13'0 0.0
2017-Feb-10 23:29N 28°29' W 016°13'0 0.0
2017-Feb-10 22:20N 28°29' W 016°13'0 0.0
2017-Feb-10 21:32N 28°29' W 016°13'2 2.1
2017-Feb-10 20:33N 28°28' W 016°12'1414.1
2017-Feb-10 19:33N 28°24' W 015°56'1515.5
2017-Feb-10 18:33N 28°18' W 015°40'1515.2
2017-Feb-10 17:33N 28°12' W 015°24'4 4.4
2017-Feb-10 16:33N 28°08' W 015°25'0 0.0
2017-Feb-10 15:31N 28°08' W 015°25'0 0.0
2017-Feb-10 14:31N 28°08' W 015°25'0 0.0
2017-Feb-10 13:31N 28°08' W 015°25'0 0.0
2017-Feb-10 12:28N 28°08' W 015°25'0 0.0
2017-Feb-10 11:31N 28°08' W 015°25'0 0.0
2017-Feb-10 10:31N 28°08' W 015°25'0 0.0
2017-Feb-10 09:31N 28°08' W 015°25'0 0.0
2017-Feb-10 08:31N 28°08' W 015°25'0 0.0
2017-Feb-10 07:31N 28°08' W 015°25'  
Track history (hours):
 
Tides and Currents Weather Stations Pressure Air Temp Water Temp Dewpoint Dewpoint Depression Visibility Wind Speed Wind Dir Waves Ship Positions

Neuburg

Last reported at 2017-Feb-20 06:30 UTC. Time now 2017-Feb-21 07:58 UTC.
Position N 35°53' W 005°58'.

Length 142 m; draft 7.1 m.

Type: Ship (hazmat cat A). MMSI: 212740000.

Date/timePositionNaut miles runAvg speedWind from/ knotsBaromVisibWave heightAir tempDewpointWater temp
2017-Feb-20 06:30N 35°53' W 005°58'1516.2
2017-Feb-20 05:34N 35°57' W 005°39'1515.4
2017-Feb-20 04:34N 36°01' W 005°21'1616.5
2017-Feb-20 03:34N 36°07' W 005°02'20915.8
2017-Feb-19 14:19N 37°19' W 000°57'1317.1
2017-Feb-19 13:33N 37°27' W 000°45'1616.3
2017-Feb-19 12:33N 37°40' W 000°32'1616.2
2017-Feb-19 11:33N 37°56' W 000°27'137 4.3
2017-Feb-18 03:33N 39°49' E 001°10'1717.3
2017-Feb-18 02:33N 40°05' E 001°20'1717.1
2017-Feb-18 01:33N 40°20' E 001°31'1716.9
2017-Feb-18 00:33N 40°35' E 001°41'1616.5
2017-Feb-17 23:34N 40°49' E 001°51'1716.4
2017-Feb-17 22:33N 41°04' E 002°02'1616.2
2017-Feb-17 21:33N 41°19' E 002°10'3 1.2
2017-Feb-17 19:26N 41°21' E 002°10'0 0.0
2017-Feb-17 18:20N 41°21' E 002°10'0 0.0
2017-Feb-17 15:32N 41°21' E 002°10'0 0.0
2017-Feb-17 14:26N 41°21' E 002°10'0 0.0
2017-Feb-17 13:08N 41°21' E 002°10'4 0.6
2017-Feb-17 07:32N 41°18' E 002°11'7 6.6
2017-Feb-17 06:30N 41°20' E 002°20'22316.8
2017-Feb-16 17:15N 43°01' E 006°48'1216.5
2017-Feb-16 16:31N 43°09' E 007°00'1616.7
2017-Feb-16 15:34N 43°19' E 007°17'1817.9
2017-Feb-16 14:33N 43°30' E 007°36'1818.1
2017-Feb-16 13:33N 43°42' E 007°55'2518.0
2017-Feb-16 12:11N 43°58' E 008°22'1117.9
2017-Feb-16 11:33N 44°05' E 008°34'1817.9
2017-Feb-16 10:34N 44°17' E 008°53'8 7.7
2017-Feb-16 09:33N 44°24' E 008°53'0 0.0
2017-Feb-16 08:33N 44°24' E 008°53'0 0.0
2017-Feb-16 07:33N 44°24' E 008°53'0 0.0
2017-Feb-16 06:33N 44°24' E 008°53'0 0.0
2017-Feb-16 05:33N 44°24' E 008°53'0 0.0
2017-Feb-16 04:33N 44°24' E 008°53'0 0.0
2017-Feb-16 03:33N 44°24' E 008°53'0 0.0
2017-Feb-16 02:33N 44°24' E 008°53'0 0.0
2017-Feb-16 01:33N 44°24' E 008°53'2 1.8
2017-Feb-16 00:33N 44°24' E 008°55'8 7.5
2017-Feb-15 23:33N 44°17' E 008°53'1716.6
2017-Feb-15 22:33N 44°05' E 008°35'1716.6
2017-Feb-15 21:33N 43°54' E 008°18'1616.5
2017-Feb-15 20:33N 43°43' E 008°01'1716.7
2017-Feb-15 19:33N 43°33' E 007°43'1616.3
2017-Feb-15 18:33N 43°22' E 007°26'1616.1
2017-Feb-15 17:33N 43°13' E 007°08'22815.9
2017-Feb-15 03:17N 41°26' E 002°36'1215.3
2017-Feb-15 02:28N 41°20' E 002°22'9 1.1
2017-Feb-14 18:33N 41°21' E 002°10'9 8.7
2017-Feb-14 17:33N 41°13' E 002°09'1312.5
2017-Feb-14 16:33N 41°01' E 002°01'1312.9
2017-Feb-14 15:33N 40°50' E 001°54'1312.7
2017-Feb-14 14:33N 40°38' E 001°46'1313.0
2017-Feb-14 13:33N 40°27' E 001°38'1313.0
2017-Feb-14 12:33N 40°16' E 001°30'1312.7
2017-Feb-14 11:33N 40°04' E 001°22'1312.9
2017-Feb-14 10:33N 39°53' E 001°15'133 7.7
2017-Feb-13 17:23N 38°04' W 000°24'1916.4
2017-Feb-13 16:15N 37°46' W 000°27'1116.0
2017-Feb-13 15:33N 37°35' W 000°29'1615.9
2017-Feb-13 14:33N 37°24' W 000°44'21516.3
2017-Feb-13 01:20N 36°03' W 004°52'1417.5
2017-Feb-13 00:33N 36°00' W 005°08'1717.2
2017-Feb-12 23:34N 35°57' W 005°29'63715.7
2017-Feb-11 07:05N 29°10' W 015°12'815.9
2017-Feb-11 06:34N 29°05' W 015°19'1616.0
2017-Feb-11 05:33N 28°54' W 015°33'1615.9
2017-Feb-11 04:33N 28°45' W 015°47'1616.1
2017-Feb-11 03:33N 28°34' W 016°01'1211.8
2017-Feb-11 02:32N 28°29' W 016°13'0 0.0
2017-Feb-11 01:29N 28°29' W 016°13'0 0.0
2017-Feb-10 23:29N 28°29' W 016°13'0 0.0
2017-Feb-10 22:20N 28°29' W 016°13'0 0.0
2017-Feb-10 21:32N 28°29' W 016°13'2 2.1
2017-Feb-10 20:33N 28°28' W 016°12'1414.1
2017-Feb-10 19:33N 28°24' W 015°56'1515.5
2017-Feb-10 18:33N 28°18' W 015°40'1515.2
2017-Feb-10 17:33N 28°12' W 015°24'4 4.4
2017-Feb-10 16:33N 28°08' W 015°25'0 0.0
2017-Feb-10 15:31N 28°08' W 015°25'0 0.0
2017-Feb-10 14:31N 28°08' W 015°25'0 0.0
2017-Feb-10 13:31N 28°08' W 015°25'0 0.0
2017-Feb-10 12:28N 28°08' W 015°25'0 0.0
2017-Feb-10 11:31N 28°08' W 015°25'0 0.0
2017-Feb-10 10:31N 28°08' W 015°25'0 0.0
2017-Feb-10 09:31N 28°08' W 015°25'0 0.0
2017-Feb-10 08:31N 28°08' W 015°25'0 0.0
2017-Feb-10 07:31N 28°08' W 015°25'  

Dump ship's entire track history